Aviation Digital Data Service (ADDS)

Output produced by METARs form (0638 UTC 28 July 2016)
found at http://www.aviationweather.gov/adds/metars/
 
KWWD 280556Z AUTO 00000KT 9SM CLR 24/23 A2992 RMK AO2 SLP133 T02390228 10272 20228 56000 $